Time;durP1;ratioP1;P1;durP2;ratioP2;P2;SDS_P1;SDS_P2;PMS_P1;PMS_P2;Temp;Humidity;BMP_temperature;BMP_pressure;BME280_temperature;BME280_humidity;BME280_pressure;Samples;Min_cycle;Max_cycle;Signal;HPM_P1;HPM_P2
2021/03/17 00:00:13;;;;;;;1.02;0.70;;;20.40;44.60;;;;;;5088158;28;20389;-46
2021/03/17 00:02:39;;;;;;;1.48;0.70;;;20.40;44.60;;;;;;5088635;28;20040;-41
2021/03/17 00:05:06;;;;;;;1.67;0.60;;;20.40;44.60;;;;;;5085836;28;20031;-47
2021/03/17 00:07:32;;;;;;;2.60;0.77;;;20.40;44.60;;;;;;5084087;28;20028;-50
2021/03/17 00:09:58;;;;;;;1.55;0.70;;;20.40;44.60;;;;;;5088945;28;20111;-47
2021/03/17 00:12:23;;;;;;;1.45;0.60;;;20.40;44.60;;;;;;5086506;28;20405;-49
2021/03/17 00:14:49;;;;;;;1.92;0.70;;;20.40;44.60;;;;;;5088339;28;20024;-47
2021/03/17 00:17:15;;;;;;;2.95;0.63;;;20.40;44.60;;;;;;5088213;28;20054;-42
2021/03/17 00:19:40;;;;;;;1.08;0.55;;;20.40;44.60;;;;;;5085164;28;20028;-52
2021/03/17 00:22:08;;;;;;;2.70;0.80;;;20.40;44.70;;;;;;5085966;28;20024;-51
2021/03/17 00:24:34;;;;;;;3.40;0.90;;;20.40;44.60;;;;;;5084549;28;20036;-49
2021/03/17 00:27:00;;;;;;;1.70;0.55;;;20.40;44.60;;;;;;5082405;28;20380;-46
2021/03/17 00:29:26;;;;;;;1.45;0.80;;;20.40;44.60;;;;;;5077974;28;20111;-54
2021/03/17 00:31:51;;;;;;;2.42;0.60;;;20.40;44.60;;;;;;5074555;28;20454;-49
2021/03/17 00:34:17;;;;;;;2.30;0.82;;;20.40;44.60;;;;;;5086443;28;20031;-54
2021/03/17 00:36:43;;;;;;;2.63;0.73;;;20.40;44.60;;;;;;5087563;28;20093;-52
2021/03/17 00:39:09;;;;;;;2.10;0.70;;;20.40;44.60;;;;;;5087569;28;20020;-48
2021/03/17 00:41:34;;;;;;;2.97;0.82;;;20.40;44.60;;;;;;5081326;28;20074;-48
2021/03/17 00:44:00;;;;;;;1.63;0.70;;;20.40;44.60;;;;;;5079834;28;20032;-55
2021/03/17 00:46:25;;;;;;;2.45;0.60;;;20.40;44.60;;;;;;5084260;28;20031;-54
2021/03/17 00:48:51;;;;;;;3.25;0.70;;;20.40;44.60;;;;;;5093124;28;20066;-49
2021/03/17 00:51:17;;;;;;;8.65;0.63;;;20.40;44.60;;;;;;5087399;28;20541;-55
2021/03/17 00:53:43;;;;;;;1.70;0.80;;;20.40;44.60;;;;;;5089614;28;20032;-53
2021/03/17 00:56:08;;;;;;;1.58;0.73;;;20.40;44.50;;;;;;5089762;28;20097;-48
2021/03/17 00:58:34;;;;;;;4.03;0.93;;;20.40;44.60;;;;;;5085024;28;20067;-51
2021/03/17 01:00:59;;;;;;;2.83;0.50;;;20.40;44.60;;;;;;5086728;28;20047;-49
2021/03/17 01:03:25;;;;;;;1.40;0.65;;;20.40;44.60;;;;;;5087965;28;20058;-48
2021/03/17 01:05:51;;;;;;;2.92;0.80;;;20.40;44.50;;;;;;5083029;28;20024;-51
2021/03/17 01:08:16;;;;;;;1.98;0.75;;;20.40;44.60;;;;;;5084934;28;20028;-55
2021/03/17 01:10:45;;;;;;;1.15;0.68;;;20.40;44.60;;;;;;5089014;28;20035;-45
2021/03/17 01:13:11;;;;;;;3.08;0.80;;;20.40;44.50;;;;;;5085837;28;20028;-51
2021/03/17 01:15:37;;;;;;;2.25;0.80;;;20.40;44.50;;;;;;5087537;28;20143;-47
2021/03/17 01:18:04;;;;;;;1.33;0.70;;;20.50;44.50;;;;;;5087798;28;20028;-47
2021/03/17 01:20:30;;;;;;;2.47;0.70;;;20.50;44.50;;;;;;5084352;28;20377;-54
2021/03/17 01:22:57;;;;;;;1.75;0.80;;;20.40;44.40;;;;;;5075821;28;20028;-49
2021/03/17 01:25:34;;;;;;;1.38;0.60;;;20.50;44.50;;;;;;5085011;28;20519;-50
2021/03/17 01:28:04;;;;;;;2.80;0.68;;;20.50;44.50;;;;;;5088292;28;20032;-49
2021/03/17 01:30:44;;;;;;;0.77;0.60;;;20.50;44.40;;;;;;5086388;28;20032;-49
2021/03/17 01:33:11;;;;;;;1.55;0.80;;;20.50;44.50;;;;;;5084366;28;20051;-46
2021/03/17 01:35:37;;;;;;;3.03;0.80;;;20.50;44.50;;;;;;5080177;28;20385;-50
2021/03/17 01:38:04;;;;;;;1.10;0.60;;;20.50;44.50;;;;;;5087285;28;20051;-47
2021/03/17 01:40:30;;;;;;;1.42;0.65;;;20.50;44.50;;;;;;5084624;28;20035;-46
2021/03/17 01:42:56;;;;;;;2.40;0.70;;;20.50;44.50;;;;;;5085442;28;20040;-49
2021/03/17 01:45:23;;;;;;;2.28;0.85;;;20.50;44.60;;;;;;5082425;28;20059;-48
2021/03/17 01:47:50;;;;;;;3.15;1.05;;;20.50;44.50;;;;;;5084646;28;20086;-48
2021/03/17 01:50:20;;;;;;;1.10;0.70;;;20.50;44.50;;;;;;5084427;28;20461;-53
2021/03/17 01:52:46;;;;;;;0.38;0.30;;;20.50;44.50;;;;;;5082299;28;20032;-52
2021/03/17 01:55:12;;;;;;;1.08;0.60;;;20.50;44.40;;;;;;5084541;28;20520;-52
2021/03/17 01:57:38;;;;;;;0.95;0.50;;;20.50;44.40;;;;;;5084203;28;20107;-48
2021/03/17 02:00:08;;;;;;;2.25;0.50;;;20.50;44.50;;;;;;5085606;28;20195;-49
2021/03/17 02:02:35;;;;;;;1.23;0.57;;;20.50;44.40;;;;;;5082051;28;20561;-49
2021/03/17 02:05:02;;;;;;;1.10;0.60;;;20.50;44.40;;;;;;5084434;28;20020;-54
2021/03/17 02:07:28;;;;;;;1.55;0.77;;;20.40;44.40;;;;;;5081209;28;20431;-51
2021/03/17 02:09:53;;;;;;;1.40;0.70;;;20.50;44.40;;;;;;5086404;28;20088;-52
2021/03/17 02:12:37;;;;;;;1.33;0.50;;;20.50;44.40;;;;;;5084674;28;20036;-55
2021/03/17 02:15:14;;;;;;;1.13;0.60;;;20.50;44.40;;;;;;5087188;28;20036;-47
2021/03/17 02:17:42;;;;;;;2.28;0.80;;;20.50;44.30;;;;;;5084258;28;20051;-50
2021/03/17 02:20:20;;;;;;;3.33;0.77;;;20.50;44.30;;;;;;5088396;28;20417;-45
2021/03/17 02:23:16;;;;;;;1.52;0.47;;;20.50;44.40;;;;;;5084332;28;20028;-49
2021/03/17 02:26:04;;;;;;;1.10;0.60;;;20.50;44.30;;;;;;5086704;28;20032;-47
2021/03/17 02:28:53;;;;;;;1.65;0.50;;;20.50;44.30;;;;;;5084198;28;20113;-53
2021/03/17 02:32:00;;;;;;;1.05;0.40;;;20.50;44.30;;;;;;5080906;28;20136;-55
2021/03/17 02:34:33;;;;;;;1.35;0.70;;;20.50;44.30;;;;;;5028620;28;20112;-51
2021/03/17 02:37:03;;;;;;;0.60;0.55;;;20.50;44.30;;;;;;5080386;28;20100;-52
2021/03/17 02:39:41;;;;;;;3.30;0.57;;;20.50;44.30;;;;;;5085418;28;20480;-51
2021/03/17 02:42:19;;;;;;;0.93;0.60;;;20.50;44.20;;;;;;5085947;28;20024;-46
2021/03/17 02:45:03;;;;;;;0.82;0.43;;;20.50;44.20;;;;;;5084554;28;20040;-47
2021/03/17 02:47:33;;;;;;;1.10;0.50;;;20.50;44.20;;;;;;5084475;28;20028;-53
2021/03/17 02:50:01;;;;;;;2.38;0.50;;;20.50;44.20;;;;;;5086974;28;20028;-50
2021/03/17 02:52:35;;;;;;;0.32;0.30;;;20.50;44.10;;;;;;5082672;28;20499;-52
2021/03/17 02:55:02;;;;;;;1.00;0.47;;;20.50;44.20;;;;;;5086096;28;20477;-44
2021/03/17 02:57:33;;;;;;;1.90;0.55;;;20.50;44.20;;;;;;5082500;28;20039;-46
2021/03/17 03:00:00;;;;;;;0.60;0.50;;;20.50;44.10;;;;;;5086632;28;20069;-48
2021/03/17 03:02:27;;;;;;;1.85;0.43;;;20.50;44.10;;;;;;5084704;28;20046;-48
2021/03/17 03:04:54;;;;;;;0.70;0.40;;;20.50;44.20;;;;;;5079860;28;20090;-49
2021/03/17 03:07:23;;;;;;;1.48;0.40;;;20.50;44.10;;;;;;5085317;28;20127;-56
2021/03/17 03:09:51;;;;;;;1.45;0.60;;;20.50;44.10;;;;;;5089504;28;20062;-54
2021/03/17 03:12:18;;;;;;;1.40;0.43;;;20.50;44.10;;;;;;5086064;28;20477;-50
2021/03/17 03:14:44;;;;;;;0.77;0.40;;;20.50;44.10;;;;;;5085888;28;20035;-48
2021/03/17 03:17:12;;;;;;;1.95;0.40;;;20.50;44.10;;;;;;5088068;28;20024;-53
2021/03/17 03:19:44;;;;;;;1.67;0.45;;;20.50;44.10;;;;;;5084222;28;20895;-45
2021/03/17 03:22:12;;;;;;;0.38;0.30;;;20.50;44.10;;;;;;5082055;28;20097;-43
2021/03/17 03:24:39;;;;;;;1.38;0.65;;;20.50;44.10;;;;;;5071838;28;20107;-44
2021/03/17 03:27:05;;;;;;;0.77;0.40;;;20.50;44.10;;;;;;5085571;28;20024;-46
2021/03/17 03:29:33;;;;;;;1.50;0.30;;;20.50;44.10;;;;;;5071395;28;20366;-53
2021/03/17 03:31:59;;;;;;;0.50;0.50;;;20.50;44.10;;;;;;5072437;28;20020;-51
2021/03/17 03:34:25;;;;;;;0.63;0.40;;;20.50;44.00;;;;;;5071270;28;20036;-47
2021/03/17 03:36:51;;;;;;;0.85;0.45;;;20.50;44.00;;;;;;5076655;28;20023;-43
2021/03/17 03:39:16;;;;;;;2.15;0.47;;;20.50;44.00;;;;;;5088449;28;20443;-49
2021/03/17 03:41:42;;;;;;;3.03;0.50;;;20.50;44.00;;;;;;5088575;28;20024;-42
2021/03/17 03:44:08;;;;;;;0.85;0.40;;;20.50;44.00;;;;;;5072097;28;20032;-46
2021/03/17 03:46:34;;;;;;;2.03;0.60;;;20.50;44.10;;;;;;5078521;28;20099;-50
2021/03/17 03:49:02;;;;;;;0.70;0.40;;;20.50;44.00;;;;;;5072295;28;20082;-48
2021/03/17 03:51:28;;;;;;;1.23;0.50;;;20.50;44.00;;;;;;5070944;28;20074;-47
2021/03/17 03:54:08;;;;;;;1.35;0.30;;;20.50;43.90;;;;;;5072084;28;20032;-46
2021/03/17 03:56:57;;;;;;;0.63;0.30;;;20.50;44.00;;;;;;5072457;28;20033;-41
2021/03/17 03:59:27;;;;;;;0.63;0.40;;;20.50;44.00;;;;;;5074533;28;20064;-55
2021/03/17 04:01:59;;;;;;;0.88;0.43;;;20.50;44.00;;;;;;5071565;28;20042;-44
2021/03/17 04:04:28;;;;;;;0.82;0.30;;;20.50;44.00;;;;;;5081261;28;20036;-54
2021/03/17 04:06:57;;;;;;;0.73;0.38;;;20.50;44.00;;;;;;5083986;28;20032;-45
2021/03/17 04:09:26;;;;;;;1.15;0.47;;;20.50;44.00;;;;;;5087280;28;20032;-55
2021/03/17 04:11:58;;;;;;;0.40;0.30;;;20.50;43.90;;;;;;5072809;28;20056;-48
2021/03/17 04:14:27;;;;;;;7.90;0.60;;;20.50;44.00;;;;;;5071320;28;20028;-52
2021/03/17 04:16:57;;;;;;;0.90;0.50;;;20.50;43.90;;;;;;5076942;28;20503;-49
2021/03/17 04:19:25;;;;;;;2.33;0.60;;;20.50;43.90;;;;;;5090780;28;20115;-52
2021/03/17 04:21:52;;;;;;;1.65;0.47;;;20.50;44.00;;;;;;5090712;28;20064;-48
2021/03/17 04:24:20;;;;;;;0.80;0.47;;;20.50;43.90;;;;;;5079710;28;20035;-47
2021/03/17 04:26:48;;;;;;;1.13;0.50;;;20.50;43.90;;;;;;5090018;28;20040;-47
2021/03/17 04:29:15;;;;;;;0.60;0.30;;;20.50;43.90;;;;;;5072625;28;20081;-48
2021/03/17 04:31:42;;;;;;;1.45;0.50;;;20.50;44.00;;;;;;5086071;28;20223;-51
2021/03/17 04:34:08;;;;;;;0.60;0.47;;;20.50;43.90;;;;;;5088670;28;20464;-48
2021/03/17 04:36:34;;;;;;;0.50;0.35;;;20.50;43.90;;;;;;5071091;28;20050;-48
2021/03/17 04:39:01;;;;;;;1.20;0.60;;;20.50;43.90;;;;;;5090563;28;20028;-47
2021/03/17 04:41:27;;;;;;;1.08;0.40;;;20.50;43.90;;;;;;5089930;28;20024;-47
2021/03/17 04:43:53;;;;;;;1.23;0.35;;;20.50;43.80;;;;;;5079896;28;20050;-48
2021/03/17 04:46:19;;;;;;;0.60;0.40;;;20.50;43.80;;;;;;5083474;28;20388;-49
2021/03/17 04:48:46;;;;;;;0.98;0.50;;;20.50;43.80;;;;;;5086142;28;20865;-48
2021/03/17 04:51:16;;;;;;;0.43;0.30;;;20.50;43.80;;;;;;5081164;28;20054;-48
2021/03/17 04:53:42;;;;;;;1.55;0.95;;;20.50;43.80;;;;;;5069436;28;20043;-46
2021/03/17 04:56:09;;;;;;;1.20;0.40;;;20.50;43.80;;;;;;5077527;28;20025;-46
2021/03/17 04:58:38;;;;;;;0.85;0.40;;;20.50;43.80;;;;;;5083593;28;20102;-52
2021/03/17 05:01:08;;;;;;;2.45;1.15;;;20.50;43.80;;;;;;5073392;28;20503;-48
2021/03/17 05:03:36;;;;;;;0.50;0.40;;;20.50;43.80;;;;;;5087387;28;20048;-52
2021/03/17 05:06:04;;;;;;;0.55;0.40;;;20.50;43.80;;;;;;5090952;28;20115;-48
2021/03/17 05:08:31;;;;;;;0.52;0.30;;;20.50;43.80;;;;;;5089393;28;20036;-43
2021/03/17 05:10:58;;;;;;;0.88;0.50;;;20.50;43.70;;;;;;5090661;28;20393;-45
2021/03/17 05:13:23;;;;;;;0.95;0.40;;;20.50;43.80;;;;;;5089977;28;20059;-54
2021/03/17 05:15:50;;;;;;;0.80;0.50;;;20.50;43.70;;;;;;5088958;28;20075;-47
2021/03/17 05:18:19;;;;;;;0.65;0.40;;;20.50;43.70;;;;;;5080557;28;20408;-53
2021/03/17 05:20:48;;;;;;;1.67;0.30;;;20.50;43.70;;;;;;5074297;28;20643;-48
2021/03/17 05:23:17;;;;;;;1.70;0.45;;;20.50;43.70;;;;;;5075181;28;20037;-47
2021/03/17 05:25:47;;;;;;;1.05;0.50;;;20.50;43.70;;;;;;5091460;28;20021;-50
2021/03/17 05:28:15;;;;;;;1.50;0.57;;;20.50;43.70;;;;;;5083524;28;20028;-51
2021/03/17 05:30:43;;;;;;;0.88;0.30;;;20.50;43.80;;;;;;5093769;28;20016;-52
2021/03/17 05:33:12;;;;;;;1.00;0.40;;;20.50;43.70;;;;;;5086367;28;20108;-52
2021/03/17 05:35:38;;;;;;;1.77;0.40;;;20.50;43.70;;;;;;5073718;28;20089;-42
2021/03/17 05:38:05;;;;;;;0.70;0.40;;;20.50;43.70;;;;;;5080525;28;20090;-47
2021/03/17 05:40:32;;;;;;;1.10;0.55;;;20.50;43.70;;;;;;5090400;28;20028;-49
2021/03/17 05:43:03;;;;;;;2.72;1.38;;;20.50;43.70;;;;;;5088547;28;20045;-50
2021/03/17 05:45:31;;;;;;;0.60;0.50;;;20.50;43.70;;;;;;5083874;28;20074;-52
2021/03/17 05:47:58;;;;;;;0.80;0.70;;;20.50;43.70;;;;;;5087151;28;20077;-48
2021/03/17 05:50:24;;;;;;;0.50;0.30;;;20.50;43.70;;;;;;5088938;28;20489;-52
2021/03/17 05:52:50;;;;;;;1.55;0.40;;;20.50;43.70;;;;;;5080700;28;20176;-50
2021/03/17 05:55:16;;;;;;;0.93;0.50;;;20.50;43.70;;;;;;5089839;28;20024;-50
2021/03/17 05:57:43;;;;;;;0.88;0.40;;;20.50;43.70;;;;;;5089296;28;20032;-51
2021/03/17 06:00:15;;;;;;;0.73;0.43;;;20.50;43.80;;;;;;5088217;28;20162;-47
2021/03/17 06:02:41;;;;;;;0.52;0.50;;;20.50;43.70;;;;;;5087524;28;20029;-48
2021/03/17 06:05:09;;;;;;;1.13;0.57;;;20.50;43.70;;;;;;5073963;28;20033;-46
2021/03/17 06:07:42;;;;;;;1.25;1.15;;;20.50;43.70;;;;;;5079543;28;20419;-47
2021/03/17 06:10:09;;;;;;;1.65;0.50;;;20.50;43.80;;;;;;5074275;28;20062;-51
2021/03/17 06:12:38;;;;;;;0.75;0.40;;;20.50;43.70;;;;;;5072181;28;20032;-49
2021/03/17 06:15:07;;;;;;;1.02;0.60;;;20.50;43.70;;;;;;5086363;28;20046;-47
2021/03/17 06:17:36;;;;;;;0.60;0.40;;;20.50;43.80;;;;;;5086135;28;20032;-51
2021/03/17 06:20:07;;;;;;;0.55;0.43;;;20.50;43.70;;;;;;5088147;28;20056;-52
2021/03/17 06:22:34;;;;;;;0.80;0.60;;;20.50;43.70;;;;;;5074641;28;20043;-49
2021/03/17 06:25:05;;;;;;;0.98;0.77;;;20.50;43.70;;;;;;5093555;28;20413;-51
2021/03/17 06:27:37;;;;;;;1.13;0.43;;;20.50;43.70;;;;;;5091456;28;20032;-45
2021/03/17 06:30:07;;;;;;;1.10;0.50;;;20.50;43.70;;;;;;5076891;28;20070;-47
2021/03/17 06:32:34;;;;;;;0.75;0.60;;;20.50;43.70;;;;;;5082003;28;20033;-45
2021/03/17 06:35:00;;;;;;;0.63;0.50;;;20.50;43.70;;;;;;5074995;28;20040;-52
2021/03/17 06:37:39;;;;;;;0.63;0.47;;;20.50;44.30;;;;;;5092324;28;20036;-56
2021/03/17 06:40:19;;;;;;;0.50;0.50;;;20.50;43.70;;;;;;5078579;28;20067;-50
2021/03/17 06:42:44;;;;;;;0.68;0.60;;;20.50;43.70;;;;;;5080060;28;20036;-50
2021/03/17 06:45:11;;;;;;;0.65;0.50;;;20.50;43.70;;;;;;5072988;28;20034;-43
2021/03/17 06:47:36;;;;;;;1.77;0.68;;;20.50;43.70;;;;;;5077174;28;20024;-48
2021/03/17 06:50:08;;;;;;;0.98;0.57;;;20.50;43.70;;;;;;5091374;28;20530;-46
2021/03/17 06:52:43;;;;;;;2.58;1.17;;;20.50;43.70;;;;;;5086540;28;20033;-51
2021/03/17 06:55:27;;;;;;;0.47;0.30;;;20.50;43.70;;;;;;5090219;28;20079;-46
2021/03/17 06:57:53;;;;;;;1.38;0.77;;;20.50;43.80;;;;;;5079715;28;20047;-46
2021/03/17 07:00:27;;;;;;;1.23;0.60;;;20.50;43.70;;;;;;5072397;28;20119;-47
2021/03/17 07:02:54;;;;;;;1.38;0.50;;;20.50;43.70;;;;;;5086907;28;20087;-48
2021/03/17 07:05:20;;;;;;;5.32;0.93;;;20.50;43.90;;;;;;5076768;28;20480;-49
2021/03/17 07:07:57;;;;;;;7.53;1.13;;;20.60;44.00;;;;;;5080262;28;20508;-52
2021/03/17 07:10:37;;;;;;;7.57;0.77;;;20.60;44.30;;;;;;5074379;28;20103;-49
2021/03/17 07:13:04;;;;;;;3.30;0.82;;;20.60;44.40;;;;;;5073123;28;20032;-55
2021/03/17 07:15:30;;;;;;;8.18;0.93;;;20.70;44.70;;;;;;5085278;28;20089;-52
2021/03/17 07:18:24;;;;;;;5.85;0.63;;;20.70;44.90;;;;;;5075764;28;20040;-52
2021/03/17 07:20:53;;;;;;;7.25;0.80;;;20.70;44.90;;;;;;5078764;28;20857;-54
2021/03/17 07:23:29;;;;;;;7.22;1.38;;;20.60;44.90;;;;;;5091504;28;20031;-46
2021/03/17 07:26:17;;;;;;;14.40;2.95;;;20.60;44.90;;;;;;5072476;28;20546;-49
2021/03/17 07:28:51;;;;;;;6.00;0.90;;;20.60;44.90;;;;;;5079763;28;20032;-53
2021/03/17 07:31:46;;;;;;;5.05;1.67;;;20.50;44.90;;;;;;5082187;28;20046;-49
2021/03/17 07:34:33;;;;;;;4.25;0.90;;;20.50;44.80;;;;;;5070759;28;20123;-51
2021/03/17 07:37:06;;;;;;;4.13;1.05;;;20.50;44.80;;;;;;5072495;28;20052;-44
2021/03/17 07:39:36;;;;;;;6.97;1.00;;;20.50;44.80;;;;;;5071471;28;20064;-50
2021/03/17 07:42:05;;;;;;;4.13;1.00;;;20.50;45.10;;;;;;5075759;28;20028;-49
2021/03/17 07:44:31;;;;;;;4.57;1.35;;;20.50;45.10;;;;;;5078402;28;20068;-55
2021/03/17 07:46:59;;;;;;;5.97;1.02;;;20.50;45.10;;;;;;5074199;28;20035;-46
2021/03/17 07:49:26;;;;;;;3.70;0.80;;;20.50;45.10;;;;;;5072104;28;20024;-45
2021/03/17 07:51:54;;;;;;;5.75;0.70;;;20.50;45.10;;;;;;5073193;28;20063;-49
2021/03/17 07:54:28;;;;;;;4.60;0.82;;;20.50;45.10;;;;;;5084345;28;20027;-52
2021/03/17 07:56:56;;;;;;;3.30;1.13;;;20.60;45.20;;;;;;5090611;28;20028;-49
2021/03/17 07:59:22;;;;;;;2.42;0.70;;;20.50;45.20;;;;;;5091507;28;20050;-51
2021/03/17 08:01:49;;;;;;;5.00;0.90;;;20.60;45.30;;;;;;5084551;28;20047;-51
2021/03/17 08:04:15;;;;;;;4.50;0.80;;;20.60;45.20;;;;;;5079578;28;20473;-47
2021/03/17 08:06:42;;;;;;;4.03;1.02;;;20.60;45.20;;;;;;5070435;28;20081;-51
2021/03/17 08:09:08;;;;;;;4.50;0.93;;;20.60;45.20;;;;;;5071752;28;20068;-50
2021/03/17 08:11:34;;;;;;;5.85;1.30;;;20.60;45.10;;;;;;5071250;28;20025;-47
2021/03/17 08:14:00;;;;;;;1.63;0.88;;;20.60;45.10;;;;;;5080787;28;20086;-52
2021/03/17 08:16:37;;;;;;;3.47;1.40;;;20.60;45.10;;;;;;5071598;28;20049;-47
2021/03/17 08:19:30;;;;;;;3.17;0.98;;;20.60;45.10;;;;;;5081337;28;20113;-47
2021/03/17 08:22:04;;;;;;;2.22;0.90;;;20.60;45.10;;;;;;5091042;28;20028;-52
2021/03/17 08:24:30;;;;;;;1.92;0.80;;;20.50;45.00;;;;;;5083184;28;20554;-54
2021/03/17 08:26:56;;;;;;;3.00;0.60;;;20.50;45.00;;;;;;5090721;28;20056;-48
2021/03/17 08:29:22;;;;;;;2.92;0.68;;;20.60;45.00;;;;;;5088130;28;20380;-53
2021/03/17 08:31:53;;;;;;;1.98;0.80;;;20.60;45.00;;;;;;5087978;28;20035;-47
2021/03/17 08:34:18;;;;;;;1.30;0.63;;;20.60;44.80;;;;;;5086503;28;20090;-48
2021/03/17 08:36:45;;;;;;;5.32;0.82;;;20.60;44.90;;;;;;5082677;28;20064;-51
2021/03/17 08:39:10;;;;;;;3.22;1.05;;;20.60;44.80;;;;;;5083191;28;20043;-50
2021/03/17 08:41:41;;;;;;;2.40;0.85;;;20.60;44.90;;;;;;5088476;28;20020;-50
2021/03/17 08:44:18;;;;;;;0.98;0.73;;;20.60;44.80;;;;;;5079043;28;20039;-48
2021/03/17 08:46:45;;;;;;;2.72;0.80;;;20.60;44.80;;;;;;5085240;28;20032;-50
2021/03/17 08:49:12;;;;;;;1.42;0.85;;;20.60;44.70;;;;;;5079777;28;20029;-46
2021/03/17 08:51:47;;;;;;;1.17;0.70;;;20.60;44.70;;;;;;5071840;28;20033;-51
2021/03/17 08:54:33;;;;;;;2.08;0.70;;;20.60;44.60;;;;;;5073070;28;20028;-47
2021/03/17 08:57:07;;;;;;;2.17;0.65;;;20.60;44.70;;;;;;5082781;28;20028;-52
2021/03/17 08:59:54;;;;;;;3.53;0.60;;;20.60;44.60;;;;;;5074875;28;20033;-55
2021/03/17 09:02:26;;;;;;;2.13;0.80;;;20.60;44.60;;;;;;5051944;28;20051;-51
2021/03/17 09:05:02;;;;;;;2.45;1.20;;;20.60;44.50;;;;;;5054010;28;20033;-49
2021/03/17 09:07:33;;;;;;;1.65;0.80;;;20.60;44.50;;;;;;5054737;28;20037;-47
2021/03/17 09:10:08;;;;;;;1.77;0.70;;;20.60;44.40;;;;;;5053736;28;20032;-49
2021/03/17 09:12:34;;;;;;;2.03;0.90;;;20.60;44.50;;;;;;5053751;28;20423;-54
2021/03/17 09:15:15;;;;;;;1.48;1.02;;;20.60;44.40;;;;;;5054299;28;20033;-49
2021/03/17 09:17:56;;;;;;;1.45;0.60;;;20.60;44.30;;;;;;5053472;28;20042;-51
2021/03/17 09:20:38;;;;;;;1.98;0.63;;;20.60;44.40;;;;;;5054445;28;20064;-50
2021/03/17 09:23:05;;;;;;;2.70;0.75;;;20.60;44.30;;;;;;5053976;28;20041;-49
2021/03/17 09:25:32;;;;;;;1.50;0.70;;;20.60;44.30;;;;;;5052968;28;20079;-55
2021/03/17 09:28:03;;;;;;;1.33;0.80;;;20.60;44.30;;;;;;5054448;28;20021;-46
2021/03/17 09:30:42;;;;;;;3.60;0.68;;;20.60;44.30;;;;;;5053714;28;20076;-52
2021/03/17 09:33:14;;;;;;;2.17;0.80;;;20.60;44.30;;;;;;5047096;28;20029;-46
2021/03/17 09:35:45;;;;;;;0.85;0.60;;;20.60;44.60;;;;;;5050920;28;20029;-50
2021/03/17 09:38:13;;;;;;;1.45;0.52;;;20.70;44.60;;;;;;5047055;28;20071;-47
2021/03/17 09:40:49;;;;;;;1.10;0.80;;;20.60;44.60;;;;;;5054070;28;20025;-52
2021/03/17 09:43:44;;;;;;;1.67;0.77;;;20.60;44.60;;;;;;5052146;28;20428;-48
2021/03/17 09:46:31;;;;;;;1.42;0.70;;;20.60;44.60;;;;;;5052538;28;20036;-52
2021/03/17 09:49:15;;;;;;;1.08;0.50;;;20.60;44.60;;;;;;5048794;28;20036;-51
2021/03/17 09:51:47;;;;;;;1.33;0.60;;;20.60;44.50;;;;;;5052566;28;20025;-54
2021/03/17 09:54:15;;;;;;;1.58;0.65;;;20.60;44.50;;;;;;5052775;28;20430;-51
2021/03/17 09:56:52;;;;;;;1.35;0.82;;;20.60;44.50;;;;;;5052910;28;20043;-50
2021/03/17 09:59:32;;;;;;;1.27;0.70;;;20.60;44.50;;;;;;5053459;28;20416;-47
2021/03/17 10:02:05;;;;;;;1.02;0.60;;;20.70;44.50;;;;;;5081253;28;20048;-51
2021/03/17 10:04:32;;;;;;;2.63;0.60;;;20.70;44.90;;;;;;5087081;28;20048;-50
2021/03/17 10:06:59;;;;;;;0.90;0.63;;;20.70;44.80;;;;;;5080237;28;20028;-50
2021/03/17 10:09:30;;;;;;;1.42;0.75;;;20.60;44.80;;;;;;5072643;28;20078;-49
2021/03/17 10:12:03;;;;;;;1.75;0.75;;;20.60;44.70;;;;;;5085442;28;20048;-51
2021/03/17 10:14:28;;;;;;;0.80;0.50;;;20.60;44.80;;;;;;5073764;28;20504;-47
2021/03/17 10:16:55;;;;;;;1.45;0.75;;;20.60;44.70;;;;;;5075102;28;20044;-47
2021/03/17 10:19:21;;;;;;;1.10;0.57;;;20.70;44.70;;;;;;5081223;28;20028;-49
2021/03/17 10:21:52;;;;;;;1.55;0.60;;;20.60;44.60;;;;;;5086000;28;20081;-49
2021/03/17 10:24:47;;;;;;;2.00;0.68;;;20.60;44.60;;;;;;5073668;28;20044;-50
2021/03/17 10:27:21;;;;;;;1.48;0.52;;;20.60;44.50;;;;;;5085869;28;20425;-45
2021/03/17 10:29:49;;;;;;;0.80;0.45;;;20.60;44.50;;;;;;5083172;28;20149;-46
2021/03/17 10:32:21;;;;;;;1.05;0.50;;;20.60;44.50;;;;;;5085101;28;20494;-55
2021/03/17 10:34:47;;;;;;;1.42;0.70;;;20.60;44.50;;;;;;5076293;28;20042;-47
2021/03/17 10:37:15;;;;;;;1.45;0.60;;;20.70;44.50;;;;;;5084201;28;21242;-48
2021/03/17 10:39:42;;;;;;;5.47;1.13;;;20.70;44.50;;;;;;5089454;28;20115;-49
2021/03/17 10:42:27;;;;;;;1.25;0.40;;;20.60;44.40;;;;;;5076949;28;20024;-47
2021/03/17 10:45:13;;;;;;;3.92;0.80;;;20.70;44.50;;;;;;5072739;28;20114;-49
2021/03/17 10:47:40;;;;;;;1.02;0.60;;;20.60;44.40;;;;;;5073714;28;20024;-51
2021/03/17 10:50:10;;;;;;;1.48;0.60;;;20.60;44.30;;;;;;5076986;28;20024;-50
2021/03/17 10:52:46;;;;;;;1.75;0.70;;;20.70;44.30;;;;;;5081465;28;20134;-56
2021/03/17 10:55:21;;;;;;;1.13;0.85;;;20.70;44.20;;;;;;5082879;28;20035;-53
2021/03/17 10:57:48;;;;;;;2.67;0.63;;;20.70;44.20;;;;;;5078700;28;20386;-51
2021/03/17 11:00:23;;;;;;;1.52;0.68;;;20.60;44.10;;;;;;5072949;28;20047;-51
2021/03/17 11:02:49;;;;;;;1.15;0.80;;;20.70;44.20;;;;;;5080795;28;20054;-49
2021/03/17 11:05:26;;;;;;;1.85;0.60;;;20.70;44.10;;;;;;5073215;28;20033;-52
2021/03/17 11:08:09;;;;;;;1.00;0.60;;;20.60;44.10;;;;;;5081387;28;20077;-47
2021/03/17 11:10:43;;;;;;;1.58;0.98;;;20.60;44.00;;;;;;5084786;28;20029;-53
2021/03/17 11:13:08;;;;;;;1.58;0.60;;;20.60;44.00;;;;;;5086719;28;20024;-56
2021/03/17 11:15:35;;;;;;;0.77;0.60;;;20.60;44.10;;;;;;5086643;28;20032;-46
2021/03/17 11:18:01;;;;;;;0.45;0.40;;;20.60;43.90;;;;;;5082828;28;20016;-47
2021/03/17 11:20:27;;;;;;;1.10;0.55;;;20.60;44.00;;;;;;5074738;28;20385;-51
2021/03/17 11:22:53;;;;;;;2.05;0.60;;;20.60;44.00;;;;;;5072636;28;20169;-48
2021/03/17 11:25:26;;;;;;;0.52;0.40;;;20.60;44.00;;;;;;5089675;28;20095;-49
2021/03/17 11:27:53;;;;;;;1.35;0.60;;;20.60;44.00;;;;;;5088150;28;20547;-48
2021/03/17 11:30:20;;;;;;;1.35;0.60;;;20.60;44.00;;;;;;5084336;28;20488;-50
2021/03/17 11:32:46;;;;;;;1.00;0.70;;;20.60;44.00;;;;;;5091605;28;20034;-49
2021/03/17 11:35:13;;;;;;;2.05;0.98;;;20.60;44.00;;;;;;5091656;28;20119;-51
2021/03/17 11:37:39;;;;;;;1.00;0.60;;;20.60;44.00;;;;;;5077498;28;20032;-52
2021/03/17 11:40:07;;;;;;;0.60;0.50;;;20.60;44.00;;;;;;5080673;28;20415;-50
2021/03/17 11:42:33;;;;;;;1.77;0.73;;;20.60;44.00;;;;;;5086385;28;20101;-50
2021/03/17 11:44:58;;;;;;;0.63;0.57;;;20.60;44.00;;;;;;5079575;28;20454;-51
2021/03/17 11:47:24;;;;;;;1.27;0.88;;;20.60;44.00;;;;;;5074474;28;20031;-52
2021/03/17 11:49:50;;;;;;;0.60;0.50;;;20.60;44.00;;;;;;5075722;28;20024;-48
2021/03/17 11:52:15;;;;;;;1.00;0.60;;;20.60;44.00;;;;;;5088453;28;20103;-51
2021/03/17 11:54:41;;;;;;;0.93;0.60;;;20.60;44.00;;;;;;5082691;28;20036;-47
2021/03/17 11:57:07;;;;;;;0.90;0.60;;;20.60;44.00;;;;;;5091404;28;20055;-50
2021/03/17 11:59:32;;;;;;;1.10;0.70;;;20.60;44.00;;;;;;5079523;28;20402;-49
2021/03/17 12:01:58;;;;;;;1.40;0.60;;;20.60;44.00;;;;;;5086574;28;20177;-52
2021/03/17 12:04:24;;;;;;;0.93;0.60;;;20.50;43.90;;;;;;5090206;28;20114;-48
2021/03/17 12:06:49;;;;;;;0.65;0.50;;;20.60;44.00;;;;;;5089413;28;20032;-47
2021/03/17 12:09:15;;;;;;;1.20;0.80;;;20.60;44.00;;;;;;5079936;28;20020;-48
2021/03/17 12:11:42;;;;;;;1.17;0.60;;;20.60;43.90;;;;;;5071049;28;20412;-48
2021/03/17 12:14:08;;;;;;;1.85;0.60;;;20.60;44.00;;;;;;5080080;28;20388;-49
2021/03/17 12:16:34;;;;;;;1.15;0.70;;;20.50;43.90;;;;;;5078244;28;20035;-47
2021/03/17 12:19:00;;;;;;;1.52;0.70;;;20.60;43.90;;;;;;5071297;28;20020;-48
2021/03/17 12:21:25;;;;;;;0.60;0.50;;;20.60;43.90;;;;;;5071415;28;20523;-47
2021/03/17 12:23:51;;;;;;;1.02;0.60;;;20.60;43.90;;;;;;5078601;28;20119;-47
2021/03/17 12:26:18;;;;;;;0.68;0.50;;;20.60;44.00;;;;;;5087957;28;20024;-50
2021/03/17 12:28:44;;;;;;;1.45;0.65;;;20.60;43.90;;;;;;5086967;28;20435;-42
2021/03/17 12:31:10;;;;;;;1.00;0.52;;;20.60;43.90;;;;;;5077243;28;20028;-47
2021/03/17 12:33:35;;;;;;;1.58;0.65;;;20.50;43.80;;;;;;5071104;28;20431;-49
2021/03/17 12:36:02;;;;;;;2.03;0.70;;;20.50;43.90;;;;;;5070930;28;20106;-47
2021/03/17 12:38:29;;;;;;;0.85;0.60;;;20.60;43.90;;;;;;5085923;28;20024;-49
2021/03/17 12:40:55;;;;;;;3.03;0.68;;;20.50;43.90;;;;;;5079382;28;20385;-49
2021/03/17 12:43:21;;;;;;;1.08;0.65;;;20.50;43.80;;;;;;5083973;28;20028;-45
2021/03/17 12:45:47;;;;;;;0.85;0.57;;;20.50;43.80;;;;;;5082824;28;20058;-47
2021/03/17 12:48:13;;;;;;;1.77;0.77;;;20.50;43.80;;;;;;5079702;28;20032;-48
2021/03/17 12:50:39;;;;;;;1.08;0.50;;;20.50;43.80;;;;;;5077388;28;20067;-54
2021/03/17 12:53:05;;;;;;;0.63;0.60;;;20.50;43.80;;;;;;5073368;28;20051;-46
2021/03/17 12:55:31;;;;;;;1.45;0.60;;;20.50;43.80;;;;;;5080652;28;20457;-49
2021/03/17 12:57:57;;;;;;;1.35;0.60;;;20.50;43.80;;;;;;5070253;28;20087;-47
2021/03/17 13:00:24;;;;;;;0.93;0.68;;;20.60;43.80;;;;;;5074301;28;20371;-55